createdAt,value
2023-04-17T00:01:27.839Z,57.41
2023-04-17T00:03:57.595Z,57.38
2023-04-17T00:06:27.248Z,57.35
2023-04-17T00:08:55.149Z,57.27
2023-04-17T00:11:22.905Z,57.39
2023-04-17T00:13:50.655Z,57.28
2023-04-17T00:16:18.423Z,57.35
2023-04-17T00:18:46.161Z,57.24
2023-04-17T00:21:14.216Z,57.13
2023-04-17T00:23:42.048Z,57.21
2023-04-17T00:26:09.793Z,57.15
2023-04-17T00:28:38.548Z,57.08
2023-04-17T00:31:06.205Z,57.03
2023-04-17T00:33:39.471Z,56.97
2023-04-17T00:36:08.702Z,56.86
2023-04-17T00:38:36.710Z,56.79
2023-04-17T00:41:04.471Z,56.82
2023-04-17T00:43:32.154Z,56.81
2023-04-17T00:46:00.319Z,56.71
2023-04-17T00:48:28.548Z,56.83
2023-04-17T00:51:02.047Z,56.79
2023-04-17T00:53:32.286Z,56.93
2023-04-17T00:56:02.646Z,56.98
2023-04-17T00:58:30.910Z,57.00
2023-04-17T01:00:59.759Z,57.07
2023-04-17T01:03:30.094Z,57.15
2023-04-17T01:05:59.601Z,57.11
2023-04-17T01:08:28.055Z,57.08
2023-04-17T01:10:55.804Z,57.11
2023-04-17T01:13:23.483Z,57.07
2023-04-17T01:15:52.076Z,57.08
2023-04-17T01:18:19.942Z,57.14
2023-04-17T01:20:47.513Z,57.16
2023-04-17T01:23:16.127Z,57.13
2023-04-17T01:25:43.809Z,57.23
2023-04-17T01:28:11.550Z,57.09
2023-04-17T01:30:39.332Z,57.10
2023-04-17T01:33:09.113Z,56.96
2023-04-17T01:35:37.373Z,57.06
2023-04-17T01:38:05.310Z,57.05
2023-04-17T01:40:33.382Z,56.95
2023-04-17T01:43:01.028Z,56.89
2023-04-17T01:45:29.010Z,56.90
2023-04-17T01:47:56.891Z,56.94
2023-04-17T01:50:25.185Z,56.77
2023-04-17T01:52:52.937Z,56.99
2023-04-17T01:55:20.618Z,56.97
2023-04-17T01:57:50.336Z,56.96
2023-04-17T02:00:18.744Z,56.96
2023-04-17T02:02:47.935Z,56.91
2023-04-17T02:05:16.026Z,56.92
2023-04-17T02:07:45.210Z,56.91
2023-04-17T02:10:12.885Z,56.99
2023-04-17T02:12:40.583Z,56.87
2023-04-17T02:15:09.092Z,56.98
2023-04-17T02:17:36.832Z,56.95
2023-04-17T02:20:08.967Z,56.91
2023-04-17T02:22:36.593Z,57.23
2023-04-17T02:25:04.699Z,57.20
2023-04-17T02:27:33.055Z,57.03
2023-04-17T02:30:01.065Z,57.15
2023-04-17T02:32:29.052Z,57.07
2023-04-17T02:34:57.123Z,56.97
2023-04-17T02:37:24.998Z,57.11
2023-04-17T02:39:54.760Z,56.91
2023-04-17T02:42:22.450Z,56.92
2023-04-17T02:44:50.407Z,56.87
2023-04-17T02:47:18.493Z,56.83
2023-04-17T02:49:46.767Z,56.95
2023-04-17T02:52:14.422Z,56.74
2023-04-17T02:54:42.187Z,56.70
2023-04-17T02:57:11.277Z,56.74
2023-04-17T02:59:39.115Z,56.71
2023-04-17T03:02:08.401Z,56.80
2023-04-17T03:04:38.933Z,56.87
2023-04-17T03:07:06.926Z,56.86
2023-04-17T03:09:34.997Z,56.80
2023-04-17T03:12:06.610Z,56.92
2023-04-17T03:14:34.292Z,56.76
2023-04-17T03:17:01.956Z,56.65
2023-04-17T03:19:29.762Z,56.76
2023-04-17T03:21:57.527Z,56.79
2023-04-17T03:24:25.308Z,56.76
2023-04-17T03:26:53.970Z,56.75
2023-04-17T03:29:22.972Z,56.73
2023-04-17T03:31:50.881Z,56.66
2023-04-17T03:34:21.370Z,56.70
2023-04-17T03:36:50.491Z,56.87
2023-04-17T03:39:18.185Z,56.88
2023-04-17T03:41:45.873Z,56.73
2023-04-17T03:44:13.591Z,56.67
2023-04-17T03:46:41.295Z,56.62
2023-04-17T03:49:09.521Z,56.78
2023-04-17T03:51:37.365Z,56.90
2023-04-17T03:54:13.920Z,56.76
2023-04-17T03:56:45.348Z,56.68
2023-04-17T03:59:14.837Z,56.64
2023-04-17T04:01:46.887Z,56.66
2023-04-17T04:04:21.058Z,56.67
2023-04-17T04:06:54.310Z,56.78
2023-04-17T04:09:22.069Z,56.73
2023-04-17T04:11:51.339Z,56.65
2023-04-17T04:14:19.318Z,56.68
2023-04-17T04:16:49.985Z,56.65
2023-04-17T04:19:17.706Z,56.77
2023-04-17T04:21:47.554Z,56.79
2023-04-17T04:24:20.232Z,56.67
2023-04-17T04:26:49.672Z,56.69
2023-04-17T04:29:18.271Z,56.64
2023-04-17T04:31:54.387Z,56.73
2023-04-17T04:34:25.887Z,56.76
2023-04-17T04:36:53.968Z,56.84
2023-04-17T04:39:33.733Z,56.72
2023-04-17T04:42:06.130Z,56.76
2023-04-17T04:45:04.408Z,56.95
2023-04-17T04:47:39.316Z,56.82
2023-04-17T04:50:08.418Z,56.79
2023-04-17T04:52:37.416Z,56.82
2023-04-17T04:55:24.592Z,56.89
2023-04-17T04:57:57.541Z,56.97
2023-04-17T05:00:28.518Z,56.97
2023-04-17T05:02:59.218Z,56.91
2023-04-17T05:05:27.941Z,56.94
2023-04-17T05:07:56.390Z,56.91
2023-04-17T05:10:28.544Z,57.08
2023-04-17T05:13:03.095Z,56.88
2023-04-17T05:15:30.904Z,56.95
2023-04-17T05:17:59.142Z,56.84
2023-04-17T05:20:30.967Z,56.88
2023-04-17T05:22:59.359Z,56.99
2023-04-17T05:25:27.042Z,56.98
2023-04-17T05:27:58.046Z,56.89
2023-04-17T05:30:25.826Z,56.87
2023-04-17T05:33:11.162Z,56.90
2023-04-17T05:35:55.446Z,56.95
2023-04-17T05:38:24.354Z,57.00
2023-04-17T05:40:53.846Z,57.05
2023-04-17T05:43:21.749Z,57.06
2023-04-17T05:45:50.065Z,57.07
2023-04-17T05:48:17.766Z,57.22
2023-04-17T05:50:47.384Z,57.29
2023-04-17T05:53:15.618Z,57.23
2023-04-17T05:55:49.767Z,57.36
2023-04-17T05:58:24.103Z,57.39
2023-04-17T06:00:56.824Z,57.41
2023-04-17T06:03:27.417Z,57.66
2023-04-17T06:06:07.765Z,57.74
2023-04-17T06:08:38.195Z,57.44
2023-04-17T06:11:06.178Z,57.64
2023-04-17T06:13:34.355Z,57.66
2023-04-17T06:16:02.174Z,57.76
2023-04-17T06:18:29.906Z,57.67
2023-04-17T06:20:59.219Z,57.67
2023-04-17T06:23:29.345Z,57.71
2023-04-17T06:25:59.619Z,57.79
2023-04-17T06:28:33.433Z,57.72
2023-04-17T06:31:03.662Z,57.83
2023-04-17T06:33:31.602Z,57.84
2023-04-17T06:36:06.594Z,57.72
2023-04-17T06:38:47.042Z,57.91
2023-04-17T06:41:16.379Z,57.62
2023-04-17T06:43:46.322Z,57.66
2023-04-17T06:46:16.048Z,57.53
2023-04-17T06:48:43.745Z,57.68
2023-04-17T06:51:13.677Z,57.81
2023-04-17T06:53:41.324Z,57.67
2023-04-17T06:56:11.970Z,57.74
2023-04-17T06:58:44.100Z,57.72
2023-04-17T07:01:13.721Z,57.78
2023-04-17T07:03:42.868Z,57.83
2023-04-17T07:06:14.358Z,57.86
2023-04-17T07:08:48.953Z,57.88
2023-04-17T07:11:17.468Z,57.79
2023-04-17T07:13:45.335Z,57.70
2023-04-17T07:16:16.790Z,57.80
2023-04-17T07:18:46.404Z,57.69
2023-04-17T07:21:14.142Z,57.63
2023-04-17T07:23:42.031Z,57.41
2023-04-17T07:26:11.681Z,57.42
2023-04-17T07:28:41.493Z,57.46
2023-04-17T07:31:11.336Z,57.44
2023-04-17T07:33:40.520Z,57.14
2023-04-17T07:36:11.993Z,57.11
2023-04-17T07:38:41.179Z,56.65
2023-04-17T07:41:12.359Z,56.53
2023-04-17T07:43:40.108Z,56.39
2023-04-17T07:46:13.669Z,56.29
2023-04-17T07:48:41.448Z,56.19
2023-04-17T07:51:09.129Z,55.91
2023-04-17T07:53:40.460Z,55.74
2023-04-17T07:56:12.745Z,55.45
2023-04-17T07:58:44.074Z,55.51
2023-04-17T08:01:11.942Z,55.17
2023-04-17T08:03:41.500Z,55.11
2023-04-17T08:06:11.873Z,54.96
2023-04-17T08:08:39.618Z,54.66
2023-04-17T08:11:07.306Z,54.69
2023-04-17T08:13:35.071Z,54.45
2023-04-17T08:16:03.490Z,54.25
2023-04-17T08:18:35.577Z,54.17
2023-04-17T08:21:04.192Z,54.06
2023-04-17T08:23:31.920Z,54.04
2023-04-17T08:26:01.275Z,53.96
2023-04-17T08:28:30.870Z,53.95
2023-04-17T08:30:58.631Z,53.54
2023-04-17T08:33:27.161Z,53.46
2023-04-17T08:35:54.875Z,53.39
2023-04-17T08:38:22.719Z,53.50
2023-04-17T08:40:53.129Z,53.26
2023-04-17T08:43:23.350Z,53.25
2023-04-17T08:45:55.478Z,53.12
2023-04-17T08:48:24.507Z,53.04
2023-04-17T08:50:53.800Z,53.07
2023-04-17T08:53:21.650Z,52.65
2023-04-17T08:55:50.977Z,52.62
2023-04-17T08:58:21.758Z,52.34
2023-04-17T09:00:50.852Z,52.42
2023-04-17T09:03:21.687Z,52.17
2023-04-17T09:05:50.843Z,52.00
2023-04-17T09:08:21.034Z,51.89
2023-04-17T09:10:53.083Z,51.49
2023-04-17T09:13:24.948Z,51.50
2023-04-17T09:16:15.740Z,51.16
2023-04-17T09:18:46.233Z,51.58
2023-04-17T09:21:18.837Z,51.49
2023-04-17T09:23:58.877Z,51.17
2023-04-17T09:26:32.357Z,51.16
2023-04-17T09:29:14.893Z,51.18
2023-04-17T09:31:46.045Z,50.94
2023-04-17T09:34:15.435Z,50.72
2023-04-17T09:36:45.731Z,50.69
2023-04-17T09:39:21.113Z,50.39
2023-04-17T09:41:50.637Z,50.42
2023-04-17T09:44:29.972Z,50.25
2023-04-17T09:46:58.945Z,50.55
2023-04-17T09:49:53.280Z,50.26
2023-04-17T09:52:25.798Z,50.52
2023-04-17T09:54:57.306Z,50.78
2023-04-17T09:57:26.831Z,50.34
2023-04-17T10:00:01.225Z,50.19
2023-04-17T10:02:33.541Z,50.10
2023-04-17T10:05:04.488Z,50.34
2023-04-17T10:07:32.227Z,50.12
2023-04-17T10:10:03.607Z,49.69
2023-04-17T10:12:32.475Z,49.59
2023-04-17T10:15:07.628Z,49.51
2023-04-17T10:17:35.519Z,49.27
2023-04-17T10:20:24.831Z,48.96
2023-04-17T10:22:56.725Z,49.18
2023-04-17T10:25:30.421Z,48.72
2023-04-17T10:28:00.832Z,48.58
2023-04-17T10:30:56.787Z,48.25
2023-04-17T10:33:27.190Z,48.39
2023-04-17T10:35:56.442Z,48.50
2023-04-17T10:38:36.038Z,48.24
2023-04-17T10:41:08.990Z,48.55
2023-04-17T10:43:43.634Z,48.06
2023-04-17T10:46:13.294Z,48.16
2023-04-17T10:48:54.406Z,47.91
2023-04-17T10:51:22.532Z,48.25
2023-04-17T10:53:59.920Z,48.11
2023-04-17T10:56:38.807Z,48.09
2023-04-17T10:59:12.430Z,48.18
2023-04-17T11:01:51.331Z,47.96
2023-04-17T11:04:24.641Z,47.94
2023-04-17T11:06:55.532Z,48.09
2023-04-17T11:09:29.631Z,47.84
2023-04-17T11:12:03.901Z,47.91
2023-04-17T11:14:32.366Z,47.94
2023-04-17T11:17:01.446Z,47.79
2023-04-17T11:19:30.948Z,47.77
2023-04-17T11:22:00.179Z,47.25
2023-04-17T11:24:30.636Z,47.18
2023-04-17T11:27:01.986Z,47.21
2023-04-17T11:29:30.115Z,47.24
2023-04-17T11:32:00.464Z,46.82
2023-04-17T11:34:28.268Z,46.72
2023-04-17T11:36:58.968Z,46.51
2023-04-17T11:39:31.119Z,46.27
2023-04-17T11:42:03.289Z,46.32
2023-04-17T11:44:35.897Z,46.16
2023-04-17T11:47:06.868Z,46.25
2023-04-17T11:49:38.965Z,45.71
2023-04-17T11:52:06.775Z,45.76
2023-04-17T11:54:38.554Z,44.98
2023-04-17T11:57:16.907Z,44.49
2023-04-17T11:59:46.151Z,44.92
2023-04-17T12:02:15.244Z,44.72
2023-04-17T12:04:43.947Z,44.38
2023-04-17T12:07:25.651Z,43.95
2023-04-17T12:09:57.651Z,44.44
2023-04-17T12:12:25.477Z,44.61
2023-04-17T12:14:53.125Z,44.73
2023-04-17T12:17:24.448Z,44.53
2023-04-17T12:19:52.557Z,44.52
2023-04-17T12:22:21.725Z,44.81
2023-04-17T12:24:49.492Z,44.86
2023-04-17T12:27:17.358Z,44.87
2023-04-17T12:29:45.353Z,44.71
2023-04-17T12:32:13.221Z,44.92
2023-04-17T12:34:43.516Z,44.97
2023-04-17T12:37:12.010Z,45.02
2023-04-17T12:39:39.834Z,45.15
2023-04-17T12:42:07.501Z,44.96
2023-04-17T12:44:36.856Z,45.11
2023-04-17T12:47:04.650Z,45.06
2023-04-17T12:49:38.451Z,45.38
2023-04-17T12:52:08.086Z,45.30
2023-04-17T12:54:35.914Z,45.43
2023-04-17T12:57:03.654Z,45.49
2023-04-17T12:59:31.334Z,45.45
2023-04-17T13:01:59.201Z,45.54
2023-04-17T13:04:29.231Z,45.55
2023-04-17T13:07:00.025Z,45.41
2023-04-17T13:09:29.692Z,45.73
2023-04-17T13:11:59.337Z,45.33
2023-04-17T13:14:30.286Z,45.39
2023-04-17T13:16:58.199Z,45.33
2023-04-17T13:19:26.224Z,45.22
2023-04-17T13:21:55.386Z,44.94
2023-04-17T13:24:24.820Z,44.84
2023-04-17T13:26:52.832Z,44.87
2023-04-17T13:29:20.817Z,44.42
2023-04-17T13:31:50.651Z,44.39
2023-04-17T13:34:24.757Z,44.44
2023-04-17T13:36:52.695Z,44.31
2023-04-17T13:39:20.365Z,43.99
2023-04-17T13:41:51.271Z,44.24
2023-04-17T13:44:19.296Z,44.29
2023-04-17T13:46:47.162Z,44.20
2023-04-17T13:49:21.637Z,44.25
2023-04-17T13:51:49.462Z,44.24
2023-04-17T13:54:17.245Z,44.14
2023-04-17T13:56:45.857Z,44.25
2023-04-17T13:59:13.984Z,43.91
2023-04-17T14:01:42.118Z,43.88
2023-04-17T14:04:10.150Z,43.72
2023-04-17T14:06:38.260Z,43.47
2023-04-17T14:09:06.225Z,43.41
2023-04-17T14:11:33.944Z,43.53
2023-04-17T14:14:01.707Z,43.35
2023-04-17T14:16:29.650Z,43.46
2023-04-17T14:19:01.353Z,43.46
2023-04-17T14:21:35.993Z,43.56
2023-04-17T14:24:05.806Z,43.60
2023-04-17T14:26:33.628Z,43.47
2023-04-17T14:29:04.126Z,43.52
2023-04-17T14:31:32.088Z,43.44
2023-04-17T14:33:59.794Z,43.42
2023-04-17T14:36:27.644Z,43.49
2023-04-17T14:38:58.553Z,43.67
2023-04-17T14:41:29.900Z,43.69
2023-04-17T14:43:57.678Z,44.23
2023-04-17T14:46:27.245Z,43.98
2023-04-17T14:48:56.245Z,43.76
2023-04-17T14:51:30.516Z,43.91
2023-04-17T14:54:00.178Z,43.83
2023-04-17T14:56:32.360Z,43.70
2023-04-17T14:59:02.028Z,43.80
2023-04-17T15:01:29.866Z,43.81
2023-04-17T15:03:58.061Z,43.70
2023-04-17T15:06:26.736Z,43.73
2023-04-17T15:08:56.694Z,43.78
2023-04-17T15:11:24.686Z,43.91
2023-04-17T15:13:52.331Z,43.73
2023-04-17T15:16:20.360Z,43.74
2023-04-17T15:18:48.316Z,43.74
2023-04-17T15:21:16.733Z,43.66
2023-04-17T15:23:44.782Z,43.94
2023-04-17T15:26:13.433Z,43.83
2023-04-17T15:28:41.173Z,43.74
2023-04-17T15:31:09.086Z,43.80
2023-04-17T15:33:37.456Z,43.68
2023-04-17T15:36:05.620Z,43.71
2023-04-17T15:38:33.403Z,43.74
2023-04-17T15:41:02.645Z,43.56
2023-04-17T15:43:30.468Z,43.67
2023-04-17T15:46:00.056Z,43.81
2023-04-17T15:48:28.465Z,43.66
2023-04-17T15:50:56.110Z,43.47
2023-04-17T15:53:23.842Z,43.48
2023-04-17T15:55:52.797Z,43.57
2023-04-17T15:58:20.446Z,43.62
2023-04-17T16:00:48.271Z,43.46
2023-04-17T16:03:16.100Z,43.52
2023-04-17T16:05:44.067Z,43.60
2023-04-17T16:08:11.741Z,43.55
2023-04-17T16:10:39.415Z,43.54
2023-04-17T16:13:07.085Z,43.49
2023-04-17T16:15:34.843Z,43.63
2023-04-17T16:18:02.725Z,43.68
2023-04-17T16:20:31.260Z,43.68
2023-04-17T16:22:59.114Z,43.87
2023-04-17T16:25:26.791Z,43.63
2023-04-17T16:27:56.652Z,43.74
2023-04-17T16:30:24.935Z,43.65
2023-04-17T16:32:53.261Z,43.78
2023-04-17T16:35:21.094Z,43.85
2023-04-17T16:37:50.904Z,43.83
2023-04-17T16:40:18.591Z,43.76
2023-04-17T16:42:46.312Z,43.81
2023-04-17T16:45:16.434Z,43.78
2023-04-17T16:47:44.268Z,43.74
2023-04-17T16:50:12.189Z,43.77
2023-04-17T16:52:43.292Z,43.76
2023-04-17T16:55:11.168Z,43.86
2023-04-17T16:57:40.641Z,43.83
2023-04-17T17:00:15.478Z,43.86
2023-04-17T17:02:43.382Z,43.85
2023-04-17T17:05:11.282Z,43.81
2023-04-17T17:07:39.087Z,43.86
2023-04-17T17:10:07.909Z,43.83
2023-04-17T17:12:35.633Z,43.83
2023-04-17T17:15:04.578Z,43.92
2023-04-17T17:17:32.634Z,43.81
2023-04-17T17:20:00.890Z,43.89
2023-04-17T17:22:28.557Z,43.96
2023-04-17T17:24:58.445Z,43.93
2023-04-17T17:27:26.161Z,44.07
2023-04-17T17:29:57.904Z,44.05
2023-04-17T17:32:29.213Z,44.21
2023-04-17T17:34:58.281Z,44.20
2023-04-17T17:37:27.552Z,44.22
2023-04-17T17:39:55.366Z,44.25
2023-04-17T17:42:23.130Z,44.17
2023-04-17T17:44:50.826Z,44.09
2023-04-17T17:47:20.723Z,44.08
2023-04-17T17:49:49.375Z,44.15
2023-04-17T17:52:17.377Z,44.13
2023-04-17T17:54:45.109Z,44.14
2023-04-17T17:57:14.062Z,44.18
2023-04-17T17:59:41.797Z,44.25
2023-04-17T18:02:11.151Z,44.19
2023-04-17T18:04:38.964Z,44.28
2023-04-17T18:07:07.994Z,44.15
2023-04-17T18:09:36.986Z,44.12
2023-04-17T18:12:05.528Z,44.15
2023-04-17T18:14:33.294Z,44.16
2023-04-17T18:17:02.880Z,44.26
2023-04-17T18:19:30.746Z,44.20
2023-04-17T18:21:58.468Z,44.41
2023-04-17T18:24:38.784Z,44.40
2023-04-17T18:27:06.576Z,44.40
2023-04-17T18:29:34.677Z,44.42
2023-04-17T18:32:02.377Z,44.55
2023-04-17T18:34:31.563Z,44.19
2023-04-17T18:37:00.200Z,44.41
2023-04-17T18:39:27.894Z,44.30
2023-04-17T18:41:56.990Z,44.35
2023-04-17T18:44:25.056Z,44.37
2023-04-17T18:46:52.904Z,44.52
2023-04-17T18:49:20.736Z,44.54
2023-04-17T18:51:48.425Z,44.39
2023-04-17T18:54:19.558Z,44.48
2023-04-17T18:56:47.425Z,44.56
2023-04-17T18:59:15.511Z,44.49
2023-04-17T19:01:43.468Z,44.44
2023-04-17T19:04:13.994Z,44.49
2023-04-17T19:06:46.228Z,44.46
2023-04-17T19:09:14.175Z,44.47
2023-04-17T19:11:41.988Z,44.40
2023-04-17T19:14:12.391Z,44.52
2023-04-17T19:16:40.667Z,44.44
2023-04-17T19:19:11.018Z,44.49
2023-04-17T19:21:40.855Z,44.50
2023-04-17T19:24:08.845Z,44.55
2023-04-17T19:26:36.877Z,44.52
2023-04-17T19:29:05.103Z,44.42
2023-04-17T19:31:33.455Z,44.54
2023-04-17T19:34:01.594Z,44.43
2023-04-17T19:36:29.320Z,44.49
2023-04-17T19:38:59.586Z,44.40
2023-04-17T19:41:28.490Z,44.51
2023-04-17T19:43:58.541Z,44.53
2023-04-17T19:46:29.631Z,44.44
2023-04-17T19:48:57.912Z,44.31
2023-04-17T19:51:27.518Z,44.50
2023-04-17T19:53:55.566Z,44.54
2023-04-17T19:56:24.598Z,44.50
2023-04-17T19:58:52.306Z,44.39
2023-04-17T20:01:26.877Z,44.45
2023-04-17T20:03:57.720Z,44.48
2023-04-17T20:06:26.771Z,44.51
2023-04-17T20:08:56.374Z,44.42
2023-04-17T20:11:24.204Z,44.56
2023-04-17T20:13:53.534Z,44.58
2023-04-17T20:16:21.266Z,44.33
2023-04-17T20:18:56.375Z,44.33
2023-04-17T20:21:24.562Z,44.30
2023-04-17T20:23:52.647Z,44.37
2023-04-17T20:26:20.558Z,44.37
2023-04-17T20:28:48.922Z,44.31
2023-04-17T20:31:18.458Z,44.34
2023-04-17T20:33:46.693Z,44.29
2023-04-17T20:36:17.144Z,44.45
2023-04-17T20:38:46.026Z,44.29
2023-04-17T20:41:13.766Z,44.41
2023-04-17T20:43:41.875Z,44.43
2023-04-17T20:46:09.688Z,44.28
2023-04-17T20:48:37.471Z,44.39
2023-04-17T20:51:05.919Z,44.40
2023-04-17T20:53:34.812Z,44.32
2023-04-17T20:56:02.588Z,44.27
2023-04-17T20:58:30.333Z,44.23
2023-04-17T21:01:01.251Z,44.33
2023-04-17T21:03:31.125Z,44.24
2023-04-17T21:05:59.946Z,44.38
2023-04-17T21:08:27.798Z,44.46
2023-04-17T21:10:55.572Z,44.33
2023-04-17T21:13:23.869Z,44.28
2023-04-17T21:15:53.309Z,44.60
2023-04-17T21:18:21.312Z,44.39
2023-04-17T21:20:48.970Z,44.47
2023-04-17T21:23:18.207Z,44.54
2023-04-17T21:25:46.027Z,44.62
2023-04-17T21:28:15.346Z,44.57
2023-04-17T21:30:43.071Z,44.54
2023-04-17T21:33:10.848Z,44.67
2023-04-17T21:35:39.236Z,44.67
2023-04-17T21:38:06.985Z,44.72
2023-04-17T21:40:37.011Z,44.73
2023-04-17T21:43:04.961Z,44.60
2023-04-17T21:45:32.743Z,44.57
2023-04-17T21:48:00.705Z,44.65
2023-04-17T21:50:28.536Z,44.55
2023-04-17T21:52:56.241Z,44.65
2023-04-17T21:55:24.657Z,44.55
2023-04-17T21:57:52.389Z,44.55
2023-04-17T22:00:22.989Z,44.77
2023-04-17T22:02:50.852Z,44.82
2023-04-17T22:05:18.878Z,44.86
2023-04-17T22:07:54.456Z,44.86
2023-04-17T22:10:23.997Z,44.90
2023-04-17T22:12:51.785Z,44.93
2023-04-17T22:15:19.618Z,44.95
2023-04-17T22:17:47.325Z,44.78
2023-04-17T22:20:15.435Z,44.82
2023-04-17T22:22:43.128Z,44.89
2023-04-17T22:25:11.013Z,44.82
2023-04-17T22:27:39.971Z,44.74
2023-04-17T22:30:08.211Z,44.93
2023-04-17T22:32:36.120Z,44.83
2023-04-17T22:35:04.398Z,44.93
2023-04-17T22:37:32.280Z,44.98
2023-04-17T22:40:00.077Z,45.08
2023-04-17T22:42:27.827Z,45.10
2023-04-17T22:44:55.582Z,45.04
2023-04-17T22:47:23.334Z,45.05
2023-04-17T22:49:52.501Z,45.16
2023-04-17T22:52:20.581Z,45.27
2023-04-17T22:54:48.391Z,45.24
2023-04-17T22:57:16.034Z,45.28
2023-04-17T22:59:43.842Z,45.37
2023-04-17T23:02:11.636Z,45.40
2023-04-17T23:04:39.483Z,45.43
2023-04-17T23:07:07.661Z,45.49
2023-04-17T23:09:35.969Z,45.49
2023-04-17T23:12:03.839Z,45.53
2023-04-17T23:14:31.571Z,45.64
2023-04-17T23:16:59.242Z,45.58
2023-04-17T23:19:27.130Z,45.49
2023-04-17T23:21:55.299Z,45.64
2023-04-17T23:24:23.009Z,45.69
2023-04-17T23:26:50.776Z,45.73
2023-04-17T23:29:18.355Z,45.71
2023-04-17T23:31:45.957Z,45.86
2023-04-17T23:34:13.704Z,45.73
2023-04-17T23:36:41.548Z,45.75
2023-04-17T23:39:09.202Z,45.83
2023-04-17T23:41:36.857Z,45.61
2023-04-17T23:44:04.730Z,45.85
2023-04-17T23:46:32.371Z,45.75
2023-04-17T23:49:00.079Z,45.81
2023-04-17T23:51:27.841Z,45.78
2023-04-17T23:53:58.943Z,45.88
2023-04-17T23:56:29.441Z,45.94
2023-04-17T23:58:57.447Z,45.94
